EGNX

East Midlands Airport

Nottingham, United Kingdom
METAR EGNX 201450Z 36016KT 9999 BKN038 09/02 Q1022
Observed Flight Rules
Feb-20 @ 14:50 UTC (3 hours ago) Visual Flight Rules
Wind Visibility Clouds
360° at 16 knots 10,000+ meters
  • Broken at 3,800' AGL
Temperatures Readings
Current 9°C / 48°F
Dewpoint 2°C / 36°F
Humidity 62%
Altimeter 30.18" Hg
Pressure 1022 hPa
Elevation 94
METAR EGNX 201450Z 36016KT 9999 BKN038 09/02 Q1022
Observed Flight Rules
Feb-20 @ 14:50 UTC
(3 hours ago)
VFR
Wind Visibility
360° at 16 knots 10,000+ meters
Clouds
  • Broken at 3,800' AGL
Temperature Dewpoint
9°C / 48°F 2°C / 36°F
Humidity Altimeter Pressure
62% 30.18" Hg 1022 hPa